createdAt,value
2019-05-21T00:00:01.171Z,1003.67
2019-05-21T00:01:01.130Z,1003.69
2019-05-21T00:02:01.062Z,1003.70
2019-05-21T00:03:01.021Z,1003.68
2019-05-21T00:04:00.983Z,1003.69
2019-05-21T00:05:00.942Z,1003.70
2019-05-21T00:06:00.934Z,1003.66
2019-05-21T00:07:00.862Z,1003.71
2019-05-21T00:08:00.822Z,1003.66
2019-05-21T00:09:00.782Z,1003.68
2019-05-21T00:10:00.735Z,1003.70
2019-05-21T00:11:00.695Z,1003.77
2019-05-21T00:12:00.678Z,1003.73
2019-05-21T00:13:00.649Z,1003.69
2019-05-21T00:14:00.583Z,1003.74
2019-05-21T00:15:00.543Z,1003.72
2019-05-21T00:16:00.503Z,1003.71
2019-05-21T00:17:00.523Z,1003.70
2019-05-21T00:18:00.417Z,1003.72
2019-05-21T00:19:00.381Z,1003.65
2019-05-21T00:20:00.336Z,1003.62
2019-05-21T00:21:00.292Z,1003.63
2019-05-21T00:22:00.252Z,1003.64
2019-05-21T00:23:00.238Z,1003.64
2019-05-21T00:24:00.172Z,1003.60
2019-05-21T00:25:00.137Z,1003.63
2019-05-21T00:26:00.123Z,1003.54
2019-05-21T00:27:00.055Z,1003.54
2019-05-21T00:28:00.026Z,1003.58
2019-05-21T00:28:59.969Z,1003.54
2019-05-21T00:29:59.928Z,1003.55
2019-05-21T00:30:59.896Z,1003.58
2019-05-21T00:31:59.882Z,1003.55
2019-05-21T00:32:59.812Z,1003.50
2019-05-21T00:33:59.765Z,1003.60
2019-05-21T00:34:59.726Z,1003.49
2019-05-21T00:35:59.684Z,1003.48
2019-05-21T00:36:59.717Z,1003.50
2019-05-21T00:37:59.614Z,1003.53
2019-05-21T00:38:59.590Z,1003.52
2019-05-21T00:39:59.539Z,1003.48
2019-05-21T00:40:59.492Z,1003.54
2019-05-21T00:41:59.471Z,1003.53
2019-05-21T00:42:59.401Z,1003.52
2019-05-21T00:43:59.359Z,1003.55
2019-05-21T00:44:59.327Z,1003.52
2019-05-21T00:45:59.284Z,1003.45
2019-05-21T00:46:59.240Z,1003.45
2019-05-21T00:47:59.224Z,1003.46
2019-05-21T00:48:59.162Z,1003.42
2019-05-21T00:49:59.123Z,1003.50
2019-05-21T00:50:59.079Z,1003.51
2019-05-21T00:52:06.847Z,1003.46
2019-05-21T00:52:59.017Z,1003.48
2019-05-21T00:53:58.968Z,1003.50
2019-05-21T00:54:58.915Z,1003.52
2019-05-21T00:55:58.876Z,1003.48
2019-05-21T00:56:58.841Z,1003.44
2019-05-21T00:57:58.823Z,1003.44
2019-05-21T00:58:58.760Z,1003.42
2019-05-21T00:59:58.745Z,1003.45
2019-05-21T01:00:58.668Z,1003.44
2019-05-21T01:01:58.629Z,1003.36
2019-05-21T01:02:58.599Z,1003.42
2019-05-21T01:03:58.555Z,1003.42
2019-05-21T01:05:00.995Z,1003.44
2019-05-21T01:05:58.495Z,1003.44
2019-05-21T01:06:58.456Z,1003.44
2019-05-21T01:07:58.383Z,1003.43
2019-05-21T01:08:58.413Z,1003.47
2019-05-21T01:09:58.311Z,1003.50
2019-05-21T01:10:58.267Z,1003.42
2019-05-21T01:11:58.230Z,1003.45
2019-05-21T01:12:58.291Z,1003.45
2019-05-21T01:13:58.136Z,1003.45
2019-05-21T01:14:58.100Z,1003.46
2019-05-21T01:15:58.061Z,1003.44
2019-05-21T01:16:58.023Z,1003.49
2019-05-21T01:17:57.983Z,1003.47
2019-05-21T01:18:57.964Z,1003.49
2019-05-21T01:19:57.897Z,1003.51
2019-05-21T01:20:57.857Z,1003.46
2019-05-21T01:21:57.823Z,1003.49
2019-05-21T01:22:57.782Z,1003.49
2019-05-21T01:23:57.762Z,1003.46
2019-05-21T01:24:57.691Z,1003.43
2019-05-21T01:25:57.682Z,1003.42
2019-05-21T01:26:57.613Z,1003.42
2019-05-21T01:27:57.572Z,1003.42
2019-05-21T01:28:57.537Z,1003.41
2019-05-21T01:29:57.494Z,1003.46
2019-05-21T01:30:57.505Z,1003.42
2019-05-21T01:31:57.414Z,1003.47
2019-05-21T01:32:57.377Z,1003.45
2019-05-21T01:33:57.325Z,1003.44
2019-05-21T01:34:57.296Z,1003.48
2019-05-21T01:35:57.252Z,1003.49
2019-05-21T01:36:57.228Z,1003.45
2019-05-21T01:37:57.160Z,1003.47
2019-05-21T01:38:57.124Z,1003.43
2019-05-21T01:39:57.123Z,1003.42
2019-05-21T01:40:57.048Z,1003.46
2019-05-21T01:41:57.007Z,1003.43
2019-05-21T01:42:56.964Z,1003.48
2019-05-21T01:43:56.930Z,1003.51
2019-05-21T01:44:56.877Z,1003.46
2019-05-21T01:45:56.854Z,1003.44
2019-05-21T01:46:56.823Z,1003.46
2019-05-21T01:47:56.752Z,1003.49
2019-05-21T01:48:56.716Z,1003.47
2019-05-21T01:49:56.675Z,1003.44
2019-05-21T01:50:56.632Z,1003.45
2019-05-21T01:51:56.646Z,1003.50
2019-05-21T01:52:56.602Z,1003.43
2019-05-21T01:53:56.518Z,1003.45
2019-05-21T01:54:56.477Z,1003.41
2019-05-21T01:55:56.437Z,1003.44
2019-05-21T01:56:56.381Z,1003.43
2019-05-21T01:57:56.369Z,1003.43
2019-05-21T01:58:56.306Z,1003.39
2019-05-21T01:59:56.266Z,1003.39
2019-05-21T02:00:56.230Z,1003.41
2019-05-21T02:01:56.187Z,1003.40
2019-05-21T02:02:56.170Z,1003.35
2019-05-21T02:03:56.105Z,1003.36
2019-05-21T02:04:56.061Z,1003.34
2019-05-21T02:05:56.020Z,1003.33
2019-05-21T02:06:55.981Z,1003.34
2019-05-21T02:07:55.969Z,1003.33
2019-05-21T02:08:55.902Z,1003.37
2019-05-21T02:09:55.853Z,1003.36
2019-05-21T02:10:55.820Z,1003.32
2019-05-21T02:11:55.779Z,1003.33
2019-05-21T02:12:55.760Z,1003.35
2019-05-21T02:13:55.705Z,1003.34
2019-05-21T02:14:55.682Z,1003.32
2019-05-21T02:15:55.632Z,1003.40
2019-05-21T02:16:55.566Z,1003.37
2019-05-21T02:17:55.528Z,1003.39
2019-05-21T02:18:55.484Z,1003.36
2019-05-21T02:19:55.477Z,1003.37
2019-05-21T02:20:55.413Z,1003.38
2019-05-21T02:21:55.371Z,1003.34
2019-05-21T02:22:55.329Z,1003.34
2019-05-21T02:23:55.283Z,1003.41
2019-05-21T02:24:55.246Z,1003.32
2019-05-21T02:25:55.227Z,1003.37
2019-05-21T02:26:55.163Z,1003.43
2019-05-21T02:27:55.127Z,1003.42
2019-05-21T02:28:55.084Z,1003.43
2019-05-21T02:29:55.035Z,1003.38
2019-05-21T02:30:56.633Z,1003.45
2019-05-21T02:31:54.959Z,1003.42
2019-05-21T02:32:54.919Z,1003.44
2019-05-21T02:33:54.879Z,1003.50
2019-05-21T02:34:54.858Z,1003.49
2019-05-21T02:35:55.197Z,1003.55
2019-05-21T02:36:54.798Z,1003.51
2019-05-21T02:37:54.723Z,1003.55
2019-05-21T02:38:54.674Z,1003.54
2019-05-21T02:39:54.631Z,1003.54
2019-05-21T02:40:54.593Z,1003.59
2019-05-21T02:41:54.570Z,1003.57
2019-05-21T02:42:54.507Z,1003.58
2019-05-21T02:43:54.467Z,1003.60
2019-05-21T02:44:54.828Z,1003.57
2019-05-21T02:45:54.393Z,1003.61
2019-05-21T02:46:54.377Z,1003.61
2019-05-21T02:47:54.306Z,1003.56
2019-05-21T02:48:54.260Z,1003.57
2019-05-21T02:49:54.218Z,1003.60
2019-05-21T02:50:54.214Z,1003.57
2019-05-21T02:51:54.165Z,1003.59
2019-05-21T02:52:54.103Z,1003.58
2019-05-21T02:53:54.069Z,1003.57
2019-05-21T02:54:54.011Z,1003.55
2019-05-21T02:55:53.975Z,1003.56
2019-05-21T02:56:53.957Z,1003.60
2019-05-21T02:57:53.921Z,1003.58
2019-05-21T02:58:53.883Z,1003.60
2019-05-21T02:59:53.817Z,1003.67
2019-05-21T03:00:53.771Z,1003.66
2019-05-21T03:01:53.726Z,1003.70
2019-05-21T03:02:53.690Z,1003.72
2019-05-21T03:03:53.682Z,1003.74
2019-05-21T03:04:53.610Z,1003.70
2019-05-21T03:06:10.521Z,1003.75
2019-05-21T03:06:53.532Z,1003.73
2019-05-21T03:07:53.501Z,1003.75
2019-05-21T03:08:53.446Z,1003.72
2019-05-21T03:09:53.429Z,1003.78
2019-05-21T03:10:53.368Z,1003.73
2019-05-21T03:11:53.330Z,1003.79
2019-05-21T03:12:53.282Z,1003.84
2019-05-21T03:13:53.238Z,1003.78
2019-05-21T03:14:53.200Z,1003.82
2019-05-21T03:15:53.175Z,1003.81
2019-05-21T03:16:53.117Z,1003.76
2019-05-21T03:17:53.114Z,1003.79
2019-05-21T03:18:53.040Z,1003.86
2019-05-21T03:19:53.020Z,1003.86
2019-05-21T03:20:52.963Z,1003.84
2019-05-21T03:21:52.931Z,1003.86
2019-05-21T03:22:52.873Z,1003.89
2019-05-21T03:23:52.834Z,1003.86
2019-05-21T03:24:52.793Z,1003.91
2019-05-21T03:25:52.751Z,1003.91
2019-05-21T03:26:52.726Z,1003.87
2019-05-21T03:27:52.662Z,1003.88
2019-05-21T03:28:52.631Z,1003.91
2019-05-21T03:29:52.584Z,1003.89
2019-05-21T03:30:52.541Z,1003.82
2019-05-21T03:31:52.506Z,1003.87
2019-05-21T03:32:52.481Z,1003.86
2019-05-21T03:33:52.558Z,1003.87
2019-05-21T03:34:52.438Z,1003.90
2019-05-21T03:35:52.333Z,1003.89
2019-05-21T03:36:52.318Z,1003.90
2019-05-21T03:37:52.305Z,1003.92
2019-05-21T03:38:52.216Z,1003.93
2019-05-21T03:39:52.175Z,1003.87
2019-05-21T03:40:52.133Z,1003.88
2019-05-21T03:41:52.089Z,1003.90
2019-05-21T03:42:52.050Z,1003.90
2019-05-21T03:43:52.042Z,1003.94
2019-05-21T03:44:59.704Z,1003.93
2019-05-21T03:45:51.924Z,1003.90
2019-05-21T03:46:51.879Z,1003.90
2019-05-21T03:47:51.841Z,1003.94
2019-05-21T03:48:51.828Z,1003.96
2019-05-21T03:49:51.799Z,1003.91
2019-05-21T03:50:51.727Z,1003.95
2019-05-21T03:51:51.694Z,1003.98
2019-05-21T03:52:51.636Z,1003.98
2019-05-21T03:53:51.614Z,1003.96
2019-05-21T03:54:51.576Z,1004.01
2019-05-21T03:55:51.519Z,1004.02
2019-05-21T03:56:51.476Z,1004.04
2019-05-21T03:57:51.443Z,1004.05
2019-05-21T03:58:51.397Z,1004.02
2019-05-21T03:59:51.347Z,1004.05
2019-05-21T04:00:51.338Z,1004.01
2019-05-21T04:01:51.285Z,1004.00
2019-05-21T04:02:51.230Z,1004.07
2019-05-21T04:03:51.225Z,1004.05
2019-05-21T04:04:51.237Z,1004.00
2019-05-21T04:05:51.105Z,1004.04
2019-05-21T04:06:52.542Z,1004.02
2019-05-21T04:07:51.019Z,1004.03
2019-05-21T04:08:50.989Z,1004.01
2019-05-21T04:09:50.972Z,1004.00
2019-05-21T04:10:50.909Z,1004.03
2019-05-21T04:11:53.304Z,1004.01
2019-05-21T04:12:50.812Z,1004.02
2019-05-21T04:13:50.775Z,1004.03
2019-05-21T04:14:50.770Z,1004.05
2019-05-21T04:15:50.717Z,1004.02
2019-05-21T04:16:50.653Z,1004.05
2019-05-21T04:17:50.663Z,1004.03
2019-05-21T04:18:50.572Z,1004.07
2019-05-21T04:19:50.556Z,1004.03
2019-05-21T04:20:50.506Z,1004.03
2019-05-21T04:21:50.466Z,1004.01
2019-05-21T04:22:50.413Z,1003.96
2019-05-21T04:23:50.374Z,1004.01
2019-05-21T04:24:50.325Z,1004.03
2019-05-21T04:25:50.325Z,1004.01
2019-05-21T04:26:50.244Z,1004.07
2019-05-21T04:27:50.202Z,1004.03
2019-05-21T04:28:50.170Z,1004.01
2019-05-21T04:29:50.120Z,1004.01
2019-05-21T04:30:50.119Z,1003.97
2019-05-21T04:31:50.117Z,1004.03
2019-05-21T04:32:50.012Z,1004.05
2019-05-21T04:33:49.971Z,1003.99
2019-05-21T04:34:49.921Z,1004.01
2019-05-21T04:35:49.890Z,1004.00
2019-05-21T04:36:49.864Z,1003.97
2019-05-21T04:37:49.795Z,1004.00
2019-05-21T04:38:49.756Z,1003.98
2019-05-21T04:39:49.711Z,1004.00
2019-05-21T04:40:49.677Z,1003.96
2019-05-21T04:41:49.634Z,1003.99
2019-05-21T04:42:49.621Z,1003.90
2019-05-21T04:43:49.559Z,1003.91
2019-05-21T04:44:49.519Z,1003.94
2019-05-21T04:45:49.464Z,1003.92
2019-05-21T04:46:49.434Z,1003.93
2019-05-21T04:47:49.390Z,1003.92
2019-05-21T04:48:49.372Z,1003.90
2019-05-21T04:49:49.300Z,1003.89
2019-05-21T04:50:49.293Z,1003.94
2019-05-21T04:51:49.252Z,1003.87
2019-05-21T04:52:49.188Z,1003.90
2019-05-21T04:53:49.180Z,1003.94
2019-05-21T04:54:49.105Z,1003.89
2019-05-21T04:55:49.072Z,1003.90
2019-05-21T04:56:49.019Z,1003.91
2019-05-21T04:57:48.978Z,1003.92
2019-05-21T04:58:48.942Z,1003.90
2019-05-21T04:59:49.047Z,1003.95
2019-05-21T05:00:48.865Z,1003.93
2019-05-21T05:01:48.814Z,1004.03
2019-05-21T05:02:48.768Z,1003.97
2019-05-21T05:03:48.739Z,1003.97
2019-05-21T05:04:48.702Z,1004.01
2019-05-21T05:05:48.676Z,1003.99
2019-05-21T05:06:48.617Z,1003.99
2019-05-21T05:07:48.570Z,1004.06
2019-05-21T05:08:48.525Z,1004.11
2019-05-21T05:09:48.483Z,1004.11
2019-05-21T05:10:49.373Z,1004.06
2019-05-21T05:11:48.407Z,1004.13
2019-05-21T05:12:48.398Z,1004.13
2019-05-21T05:13:48.328Z,1004.19
2019-05-21T05:14:48.288Z,1004.17
2019-05-21T05:15:48.250Z,1004.23
2019-05-21T05:16:48.198Z,1004.18
2019-05-21T05:17:48.156Z,1004.26
2019-05-21T05:18:48.151Z,1004.27
2019-05-21T05:19:48.080Z,1004.27
2019-05-21T05:20:48.033Z,1004.23
2019-05-21T05:21:47.994Z,1004.22
2019-05-21T05:22:47.979Z,1004.28
2019-05-21T05:23:47.925Z,1004.28
2019-05-21T05:24:47.879Z,1004.24
2019-05-21T05:25:47.834Z,1004.30
2019-05-21T05:26:47.797Z,1004.31
2019-05-21T05:27:47.758Z,1004.31
2019-05-21T05:28:47.733Z,1004.26
2019-05-21T05:29:47.668Z,1004.30
2019-05-21T05:30:47.626Z,1004.32
2019-05-21T05:31:47.586Z,1004.31
2019-05-21T05:32:47.555Z,1004.33
2019-05-21T05:33:47.530Z,1004.37
2019-05-21T05:34:47.485Z,1004.39
2019-05-21T05:35:47.422Z,1004.30
2019-05-21T05:36:47.390Z,1004.38
2019-05-21T05:37:48.950Z,1004.38
2019-05-21T05:38:47.305Z,1004.44
2019-05-21T05:39:47.288Z,1004.44
2019-05-21T05:40:47.241Z,1004.49
2019-05-21T05:41:47.179Z,1004.46
2019-05-21T05:42:47.138Z,1004.46
2019-05-21T05:43:47.092Z,1004.47
2019-05-21T05:44:47.128Z,1004.38
2019-05-21T05:45:47.051Z,1004.46
2019-05-21T05:46:46.980Z,1004.47
2019-05-21T05:47:46.937Z,1004.53
2019-05-21T05:48:46.961Z,1004.51
2019-05-21T05:49:46.852Z,1004.53
2019-05-21T05:50:46.839Z,1004.42
2019-05-21T05:51:46.782Z,1004.46
2019-05-21T05:52:46.734Z,1004.49
2019-05-21T05:53:46.684Z,1004.53
2019-05-21T05:54:46.646Z,1004.58
2019-05-21T05:55:46.632Z,1004.54
2019-05-21T05:56:46.570Z,1004.58
2019-05-21T05:57:46.560Z,1004.53
2019-05-21T05:58:46.491Z,1004.52
2019-05-21T05:59:46.450Z,1004.57
2019-05-21T06:00:46.400Z,1004.59
2019-05-21T06:01:46.369Z,1004.58
2019-05-21T06:02:46.317Z,1004.61
2019-05-21T06:03:46.302Z,1004.60
2019-05-21T06:04:46.251Z,1004.60
2019-05-21T06:05:46.224Z,1004.62
2019-05-21T06:06:46.155Z,1004.66
2019-05-21T06:07:58.763Z,1004.59
2019-05-21T06:08:46.135Z,1004.61
2019-05-21T06:09:46.051Z,1004.59
2019-05-21T06:10:46.001Z,1004.63
2019-05-21T06:11:45.961Z,1004.67
2019-05-21T06:12:45.915Z,1004.69
2019-05-21T06:13:45.892Z,1004.69
2019-05-21T06:14:45.867Z,1004.68
2019-05-21T06:15:45.792Z,1004.66
2019-05-21T06:16:45.932Z,1004.71
2019-05-21T06:17:45.716Z,1004.70
2019-05-21T06:18:45.749Z,1004.66
2019-05-21T06:19:45.668Z,1004.71
2019-05-21T06:20:45.587Z,1004.68
2019-05-21T06:21:45.549Z,1004.68
2019-05-21T06:22:45.522Z,1004.68
2019-05-21T06:23:45.474Z,1004.72
2019-05-21T06:24:45.426Z,1004.72
2019-05-21T06:25:45.415Z,1004.77
2019-05-21T06:26:45.352Z,1004.77
2019-05-21T06:27:45.302Z,1004.66
2019-05-21T06:28:45.291Z,1004.75
2019-05-21T06:29:45.253Z,1004.79
2019-05-21T06:30:45.189Z,1004.80
2019-05-21T06:31:45.156Z,1004.76
2019-05-21T06:32:45.101Z,1004.78
2019-05-21T06:33:45.058Z,1004.81
2019-05-21T06:34:48.185Z,1004.81
2019-05-21T06:35:44.977Z,1004.83
2019-05-21T06:36:44.942Z,1004.87
2019-05-21T06:37:44.905Z,1004.87
2019-05-21T06:38:44.904Z,1004.88
2019-05-21T06:39:44.846Z,1004.90
2019-05-21T06:40:44.786Z,1004.92
2019-05-21T06:41:44.738Z,1004.94
2019-05-21T06:42:44.700Z,1004.98
2019-05-21T06:43:44.670Z,1004.94
2019-05-21T06:44:44.617Z,1004.96
2019-05-21T06:45:44.596Z,1004.97
2019-05-21T06:46:44.528Z,1004.95
2019-05-21T06:47:44.491Z,1004.96
2019-05-21T06:48:44.452Z,1004.96
2019-05-21T06:49:44.447Z,1005.00
2019-05-21T06:50:44.384Z,1004.95
2019-05-21T06:51:44.336Z,1004.96
2019-05-21T06:52:44.293Z,1005.02
2019-05-21T06:53:44.246Z,1005.03
2019-05-21T06:54:44.215Z,1005.00
2019-05-21T06:55:44.197Z,1005.00
2019-05-21T06:56:44.125Z,1005.02
2019-05-21T06:57:44.206Z,1005.06
2019-05-21T06:58:44.078Z,1005.07
2019-05-21T06:59:44.031Z,1005.07
2019-05-21T07:00:44.027Z,1005.05
2019-05-21T07:01:43.933Z,1005.11
2019-05-21T07:02:43.888Z,1005.14
2019-05-21T07:03:43.850Z,1005.13
2019-05-21T07:04:43.802Z,1005.15
2019-05-21T07:05:57.721Z,1005.20
2019-05-21T07:06:44.850Z,1005.15
2019-05-21T07:07:43.678Z,1005.24
2019-05-21T07:08:43.644Z,1005.26
2019-05-21T07:09:43.605Z,1005.25
2019-05-21T07:10:43.558Z,1005.23
2019-05-21T07:11:43.524Z,1005.23
2019-05-21T07:12:43.516Z,1005.26
2019-05-21T07:13:43.442Z,1005.25
2019-05-21T07:14:43.403Z,1005.25
2019-05-21T07:15:43.363Z,1005.30
2019-05-21T07:16:43.318Z,1005.32
2019-05-21T07:17:43.302Z,1005.32
2019-05-21T07:18:43.258Z,1005.37
2019-05-21T07:19:43.192Z,1005.37
2019-05-21T07:20:43.160Z,1005.36
2019-05-21T07:21:43.123Z,1005.41
2019-05-21T07:22:43.130Z,1005.46
2019-05-21T07:23:43.039Z,1005.46
2019-05-21T07:24:43.010Z,1005.50
2019-05-21T07:25:42.950Z,1005.48
2019-05-21T07:26:42.934Z,1005.51
2019-05-21T07:27:42.899Z,1005.49
2019-05-21T07:28:42.835Z,1005.56
2019-05-21T07:29:42.816Z,1005.58
2019-05-21T07:30:42.748Z,1005.60
2019-05-21T07:31:42.706Z,1005.60
2019-05-21T07:32:42.703Z,1005.61
2019-05-21T07:33:42.688Z,1005.56
2019-05-21T07:34:42.592Z,1005.68
2019-05-21T07:35:42.628Z,1005.65
2019-05-21T07:36:42.513Z,1005.60
2019-05-21T07:37:42.471Z,1005.61
2019-05-21T07:38:52.775Z,1005.63
2019-05-21T07:39:42.386Z,1005.65
2019-05-21T07:40:42.377Z,1005.71
2019-05-21T07:41:42.310Z,1005.69
2019-05-21T07:42:42.261Z,1005.69
2019-05-21T07:43:42.229Z,1005.63
2019-05-21T07:44:42.183Z,1005.71
2019-05-21T07:45:42.176Z,1005.71
2019-05-21T07:46:42.129Z,1005.67
2019-05-21T07:47:42.065Z,1005.74
2019-05-21T07:48:42.014Z,1005.71
2019-05-21T07:49:41.974Z,1005.71
2019-05-21T07:50:41.943Z,1005.71
2019-05-21T07:51:41.914Z,1005.78
2019-05-21T07:52:41.865Z,1005.70
2019-05-21T07:53:41.826Z,1005.76
2019-05-21T07:54:41.781Z,1005.75
2019-05-21T07:55:41.739Z,1005.73
2019-05-21T07:56:41.718Z,1005.81
2019-05-21T07:57:41.657Z,1005.75
2019-05-21T07:58:41.616Z,1005.77
2019-05-21T07:59:41.575Z,1005.77
2019-05-21T08:00:41.529Z,1005.81
2019-05-21T08:01:41.526Z,1005.82
2019-05-21T08:02:41.451Z,1005.82
2019-05-21T08:03:41.406Z,1005.81
2019-05-21T08:04:41.394Z,1005.87
2019-05-21T08:05:41.347Z,1005.86
2019-05-21T08:06:41.323Z,1005.88
2019-05-21T08:07:41.316Z,1005.89
2019-05-21T08:08:41.204Z,1005.86
2019-05-21T08:09:41.189Z,1005.88
2019-05-21T08:10:41.121Z,1005.87
2019-05-21T08:11:41.081Z,1005.92
2019-05-21T08:12:41.053Z,1005.95
2019-05-21T08:13:41.033Z,1005.85
2019-05-21T08:14:40.961Z,1005.91
2019-05-21T08:15:40.915Z,1005.93
2019-05-21T08:16:40.926Z,1005.95
2019-05-21T08:17:40.846Z,1005.91
2019-05-21T08:18:40.828Z,1005.95
2019-05-21T08:19:40.764Z,1005.96
2019-05-21T08:20:40.783Z,1005.92
2019-05-21T08:21:40.676Z,1005.98
2019-05-21T08:22:40.641Z,1005.97
2019-05-21T08:23:40.621Z,1005.92
2019-05-21T08:24:40.588Z,1006.00
2019-05-21T08:25:40.560Z,1006.04
2019-05-21T08:26:40.488Z,1006.05
2019-05-21T08:27:40.438Z,1006.05
2019-05-21T08:28:40.393Z,1006.06
2019-05-21T08:29:40.354Z,1006.13
2019-05-21T08:30:40.345Z,1006.16
2019-05-21T08:31:40.275Z,1006.23
2019-05-21T08:32:40.228Z,1006.23
2019-05-21T08:33:40.187Z,1006.25
2019-05-21T08:34:40.144Z,1006.30
2019-05-21T08:35:40.136Z,1006.36
2019-05-21T08:36:40.075Z,1006.35
2019-05-21T08:37:40.046Z,1006.34
2019-05-21T08:38:39.995Z,1006.34
2019-05-21T08:39:39.950Z,1006.37
2019-05-21T08:40:39.905Z,1006.35
2019-05-21T08:41:39.881Z,1006.33
2019-05-21T08:42:39.846Z,1006.35
2019-05-21T08:43:39.783Z,1006.40
2019-05-21T08:44:39.756Z,1006.35
2019-05-21T08:45:39.757Z,1006.32
2019-05-21T08:46:39.656Z,1006.35
2019-05-21T08:47:39.626Z,1006.34
2019-05-21T08:48:39.586Z,1006.28
2019-05-21T08:49:39.545Z,1006.33
2019-05-21T08:50:39.502Z,1006.34
2019-05-21T08:51:39.486Z,1006.31
2019-05-21T08:52:39.505Z,1006.36
2019-05-21T08:53:39.373Z,1006.34
2019-05-21T08:54:39.336Z,1006.39
2019-05-21T08:55:39.290Z,1006.41
2019-05-21T08:56:39.260Z,1006.37
2019-05-21T08:57:39.247Z,1006.42
2019-05-21T08:58:39.178Z,1006.39
2019-05-21T08:59:39.133Z,1006.47
2019-05-21T09:00:39.088Z,1006.46
2019-05-21T09:01:39.046Z,1006.45
2019-05-21T09:02:39.009Z,1006.48
2019-05-21T09:03:38.999Z,1006.48
2019-05-21T09:04:46.228Z,1006.53
2019-05-21T09:05:38.882Z,1006.56
2019-05-21T09:06:38.852Z,1006.53
2019-05-21T09:07:38.846Z,1006.54
2019-05-21T09:08:38.770Z,1006.59
2019-05-21T09:09:50.154Z,1006.60
2019-05-21T09:10:38.685Z,1006.60
2019-05-21T09:11:38.669Z,1006.62
2019-05-21T09:12:38.699Z,1006.63
2019-05-21T09:13:38.551Z,1006.68
2019-05-21T09:14:38.515Z,1006.69
2019-05-21T09:15:38.528Z,1006.64
2019-05-21T09:16:38.440Z,1006.63
2019-05-21T09:17:38.398Z,1006.66
2019-05-21T09:18:38.351Z,1006.69
2019-05-21T09:19:38.310Z,1006.66
2019-05-21T09:20:38.306Z,1006.72
2019-05-21T09:21:38.245Z,1006.74
2019-05-21T09:22:38.196Z,1006.75
2019-05-21T09:23:38.165Z,1006.78
2019-05-21T09:24:38.114Z,1006.77
2019-05-21T09:25:38.098Z,1006.75
2019-05-21T09:26:38.090Z,1006.79
2019-05-21T09:27:37.994Z,1006.79
2019-05-21T09:28:37.951Z,1006.78
2019-05-21T09:29:37.912Z,1006.80
2019-05-21T09:30:37.870Z,1006.79
2019-05-21T09:31:37.859Z,1006.84
2019-05-21T09:32:37.793Z,1006.92
2019-05-21T09:33:37.740Z,1006.87
2019-05-21T09:34:48.279Z,1006.84
2019-05-21T09:35:37.684Z,1006.85
2019-05-21T09:36:37.640Z,1006.89
2019-05-21T09:37:37.607Z,1006.86
2019-05-21T09:38:37.538Z,1006.85
2019-05-21T09:39:37.521Z,1006.84
2019-05-21T09:40:37.467Z,1006.87
2019-05-21T09:41:37.422Z,1006.94
2019-05-21T09:42:37.383Z,1006.96
2019-05-21T09:43:37.344Z,1006.97
2019-05-21T09:44:37.326Z,1006.96
2019-05-21T09:45:37.257Z,1006.96
2019-05-21T09:46:37.216Z,1006.94
2019-05-21T09:47:37.196Z,1006.93
2019-05-21T09:48:37.142Z,1006.97
2019-05-21T09:49:37.102Z,1007.00
2019-05-21T09:50:37.054Z,1007.01
2019-05-21T09:51:37.188Z,1007.00
2019-05-21T09:52:37.009Z,1007.02
2019-05-21T09:53:36.941Z,1007.04
2019-05-21T09:54:36.896Z,1007.04
2019-05-21T09:55:36.863Z,1007.04
2019-05-21T09:56:36.840Z,1007.10
2019-05-21T09:57:36.766Z,1007.02
2019-05-21T09:58:36.759Z,1007.07
2019-05-21T09:59:36.709Z,1007.07
2019-05-21T10:00:36.733Z,1007.08
2019-05-21T10:01:47.909Z,1007.04
2019-05-21T10:02:46.116Z,1007.05
2019-05-21T10:03:45.736Z,1007.06
2019-05-21T10:04:45.188Z,1007.05
2019-05-21T10:05:44.009Z,1007.14
2019-05-21T10:06:45.720Z,1007.06
2019-05-21T10:07:45.783Z,1007.07
2019-05-21T10:08:45.808Z,1007.09
2019-05-21T10:09:45.347Z,1007.08
2019-05-21T10:10:43.763Z,1007.05
2019-05-21T10:11:44.938Z,1007.03
2019-05-21T10:12:45.445Z,1007.09
2019-05-21T10:13:46.543Z,1007.05
2019-05-21T10:14:36.072Z,1007.12
2019-05-21T10:15:36.080Z,1007.14
2019-05-21T10:16:35.996Z,1007.11
2019-05-21T10:17:35.983Z,1007.14
2019-05-21T10:18:35.926Z,1007.14
2019-05-21T10:19:35.875Z,1007.11
2019-05-21T10:20:35.837Z,1007.17
2019-05-21T10:21:35.828Z,1007.20
2019-05-21T10:22:35.747Z,1007.22
2019-05-21T10:23:35.708Z,1007.20
2019-05-21T10:24:35.666Z,1007.24
2019-05-21T10:25:35.635Z,1007.26
2019-05-21T10:26:35.606Z,1007.19
2019-05-21T10:27:35.574Z,1007.17
2019-05-21T10:28:44.535Z,1007.27
2019-05-21T10:29:44.607Z,1007.26
2019-05-21T10:30:44.608Z,1007.26
2019-05-21T10:31:44.649Z,1007.32
2019-05-21T10:32:35.373Z,1007.28
2019-05-21T10:33:35.306Z,1007.22
2019-05-21T10:34:35.258Z,1007.26
2019-05-21T10:35:35.218Z,1007.26
2019-05-21T10:36:35.213Z,1007.31
2019-05-21T10:37:35.162Z,1007.31
2019-05-21T10:38:35.118Z,1007.34
2019-05-21T10:39:35.056Z,1007.35
2019-05-21T10:40:35.023Z,1007.36
2019-05-21T10:41:34.973Z,1007.39
2019-05-21T10:42:34.950Z,1007.36
2019-05-21T10:43:34.898Z,1007.38
2019-05-21T10:44:34.910Z,1007.40
2019-05-21T10:45:34.817Z,1007.37
2019-05-21T10:46:34.775Z,1007.37
2019-05-21T10:47:34.727Z,1007.42
2019-05-21T10:48:34.698Z,1007.44
2019-05-21T10:49:34.677Z,1007.42
2019-05-21T10:50:34.622Z,1007.45
2019-05-21T10:51:34.582Z,1007.43
2019-05-21T10:52:34.527Z,1007.43
2019-05-21T10:53:34.486Z,1007.38
2019-05-21T10:54:34.454Z,1007.43
2019-05-21T10:55:34.439Z,1007.44
2019-05-21T10:56:47.590Z,1007.48
2019-05-21T10:57:34.343Z,1007.44
2019-05-21T10:58:34.286Z,1007.44
2019-05-21T10:59:34.245Z,1007.47
2019-05-21T11:00:34.209Z,1007.48
2019-05-21T11:01:34.195Z,1007.51
2019-05-21T11:02:34.131Z,1007.46
2019-05-21T11:03:34.095Z,1007.49
2019-05-21T11:04:34.050Z,1007.53
2019-05-21T11:05:34.022Z,1007.51
2019-05-21T11:06:33.993Z,1007.47
2019-05-21T11:07:33.924Z,1007.51
2019-05-21T11:08:33.895Z,1007.53
2019-05-21T11:09:33.862Z,1007.51
2019-05-21T11:10:33.807Z,1007.57
2019-05-21T11:11:33.760Z,1007.51
2019-05-21T11:12:33.742Z,1007.55
2019-05-21T11:13:33.680Z,1007.56
2019-05-21T11:14:33.652Z,1007.54
2019-05-21T11:15:33.621Z,1007.59
2019-05-21T11:16:33.565Z,1007.62
2019-05-21T11:17:48.412Z,1007.61
2019-05-21T11:18:33.528Z,1007.64
2019-05-21T11:19:33.439Z,1007.64
2019-05-21T11:20:33.400Z,1007.67
2019-05-21T11:21:33.362Z,1007.68
2019-05-21T11:22:33.331Z,1007.65
2019-05-21T11:23:33.321Z,1007.71
2019-05-21T11:24:33.241Z,1007.74
2019-05-21T11:25:33.201Z,1007.75
2019-05-21T11:26:33.170Z,1007.79
2019-05-21T11:27:33.127Z,1007.76
2019-05-21T11:28:33.107Z,1007.77
2019-05-21T11:29:33.041Z,1007.75
2019-05-21T11:30:33.029Z,1007.79
2019-05-21T11:31:32.956Z,1007.85
2019-05-21T11:32:32.912Z,1007.79
2019-05-21T11:33:32.920Z,1007.81
2019-05-21T11:34:32.841Z,1007.82
2019-05-21T11:35:35.833Z,1007.81
2019-05-21T11:36:32.759Z,1007.80
2019-05-21T11:37:32.718Z,1007.81
2019-05-21T11:38:39.946Z,1007.82
2019-05-21T11:39:32.641Z,1007.85
2019-05-21T11:40:32.599Z,1007.88
2019-05-21T11:41:32.559Z,1007.85
2019-05-21T11:42:32.511Z,1007.90
2019-05-21T11:43:32.497Z,1007.89
2019-05-21T11:44:32.443Z,1007.91
2019-05-21T11:45:33.179Z,1007.92
2019-05-21T11:46:32.359Z,1007.92
2019-05-21T11:47:32.319Z,1007.88
2019-05-21T11:48:32.302Z,1007.96
2019-05-21T11:49:32.242Z,1007.94
2019-05-21T11:50:32.211Z,1007.95
2019-05-21T11:51:32.156Z,1007.93
2019-05-21T11:52:32.109Z,1007.98
2019-05-21T11:53:32.360Z,1007.96
2019-05-21T11:54:32.068Z,1007.98
2019-05-21T11:55:31.994Z,1008.03
2019-05-21T11:56:31.953Z,1007.99
2019-05-21T11:57:31.934Z,1008.01
2019-05-21T11:58:31.910Z,1008.02
2019-05-21T11:59:31.837Z,1007.95
2019-05-21T12:00:31.807Z,1008.07
2019-05-21T12:01:31.752Z,1008.01
2019-05-21T12:02:31.737Z,1008.08
2019-05-21T12:03:31.674Z,1008.06
2019-05-21T12:04:31.631Z,1008.06